Nome, AK

4:41 PM AKST on November 27, 2014 (GMT -0900)
Nome | Change Station
CLOSE
Current Station
Airport
Location: Nome,
Elevation: 36 ft
Nearby Weather Stations

Elev 36 ft 64.51 °N, 165.45 °W | Updated 20 minutes ago

Light Snow
Light Snow
22 °F
Feels Like 6 °F
N
24
Wind Variable Wind from East

Today
High -- | Low -- °F
--% Chance of Precip.
Yesterday
High -- | Low -- °F
Precip. -- in
11:13 AM 4:24 PM
Waxing Crescent, 35% visible
Pressure 29.97 in
Visibility 9.0 miles
Clouds Mostly Cloudy 1100 ft
Mostly Cloudy 2400 ft
Overcast 3100 ft
Windchill 6 °F
Dew Point 19 °F
Humidity 89%
Rainfall 0.00 in
Snow Depth Not available.
UV 0 out of 12
Pollen Not available.
Air Quality Not available.
Flu Activity Not available.
SPECI PAOM 280121Z COR 09021KT 9SM -SN BKN011 BKN024 OVC031 M06/M07 A2997 RMK AO2 PK WND 09028/0109 SNB19 P0000 T10561072

More Conditions Fewer Conditions

Pressure 29.97 in
Visibility 9.0 miles
Clouds Mostly Cloudy 1100 ft
Mostly Cloudy 2400 ft
Overcast 3100 ft
Windchill 6 °F
Dew Point 19 °F
Humidity 89%
Rainfall 0.00 in
Snow Depth Not available.
UV 0 out of 12
Pollen Not available.
Air Quality Not available.
Flu Activity Not available.
SPECI PAOM 280121Z COR 09021KT 9SM -SN BKN011 BKN024 OVC031 M06/M07 A2997 RMK AO2 PK WND 09028/0109 SNB19 P0000 T10561072

More Conditions Fewer Conditions

10-Day Weather Forecast

Almanac

Astronomy

Nov. 27, 2014 Rise Set
Actual Time
Civil Twilight
Nautical Twilight
Astronomical Twilight
Moon
Length of Visible Light
Length of Day
Tomorrow will be .
, % of the Moon is Illuminated

Today's Extremes

State Highs State Lows

Community

WunderPhotos

Upload Photos

1,774,151 photos uploaded!

WunderBlogs® & News

Nearby

Air Quality

  Air Quality AQ Index Pollutant
Not available.

Snow Depth

Station Depth Elevation

Earthquake Activity

City Distance Mag. Time & Date
Minimum magnitude displayed is 2.5.

Coastal Water Temperatures

Place Temperature

Nearby Weather Stations